KAMA

Rick Husband Amarillo International Airport

Airport
ICAO code
KAMA
Summary
ICAO Region
NAM
ICAO Territory
Location

Amarillo, Texas,

Coordinates
35° 13' 7" N , 101° 42' 19" W
KCC
Airport WX
Tornado
Metar
Observation
KAMA 311853Z 29028G43KT 10SM CLR 17/M13 A2984 RMK AO2 PK WND 28047/1815 SLP070 T01721128
Station
Amarillo, Amarillo International Airport
Date/Time
2023-03-31 18:53:00
Wind direction
290°
Wind speed
28 kts
Lowest cloud amount
n/a
Temperature
17.2°C
Dew point
-12.8°C
Humidity
11%
Weather condition
n/a

Description

Rick Husband Amarillo International Airport is a public use airport located 10 km east of the central business district of Amarillo, in Potter and Randall Counties, Texas.

Climatology

Semi-arid Steppe climate (Köppen climate classification BSk) - Little precipitation, hot summers and cool, occasionally cold, winters, sometimes with large changes in temperature in a 24 hour period.

Airport map

Aerial View

SKYbrary Partners:

Safety knowledge contributed by: